Strona główna
METAR-TAF:

METAR-TAF

Lotnisko :

Koksijde, Belgia

Szerokość geograficzna: 51-05N, Długość geograficzna: 002-39E, wysokość: 4 m

Aktualna obserwacja pogody

Raport powstał 32 minut temu, godzina 01:55 UTC
Wiatr 17 kt od zachodnio-południowy zachód
Temperatura 7°C
Wilgotność 76%
Ciśnienie 1010 hPa
Widzialność: 8000 m

METAR: EBFN 170155Z AUTO 24017KT 8000 BKN035/// 07/03 Q1010 BLU

czas: 03:27 (02:27 UTC)

Prognoza

Raport powstał 10 godziny i 46 minut temu, godzina 15:41 UTC
Prognoza ważna od 16 godzina 19 UTC do 17 godzina 07 UTC
Wiatr 20 kt od zachodnio-południowy zachód w porywach dochodzący do 35 kt
Widzialność 10 km lub więcej
Przerywane chmury na wysokości 4000 ft
Stopniowe zmiany
od 17 godzina 04 UTC do 17 godzina 06 UTC
Wiatr 15 kt od południowy zachód w porywach dochodzący do 25 kt
Przerywane chmury na wysokości 2000 ft

TAF: EBFN 161541Z 1619/1707 24020G35KT 9999 BKN040 BECMG 1704/1706 23015G25KT BKN020

Obserwacja i prognoza pogody dla ponad 4000 lotnisk (raport METAR i TAF).

Dostępne stacje oznaczono żółtymi i czerwonymi punktami na mapie.

Najedź kursorem aby zobaczyć nazwę stacji.

Kliknij aby zobaczyć obserwacje i prognozy pogody.

Aby zmienić mapę: kliknij na zielony przycisk z czarnym krzyżykiem, aby powiększyć; na zielony przycisk z myślnikiem, aby pomniejszyć; na zielone strzałki, aby przejść do map sąsiednich.


METAR-TAF: